<?xml version="1.0" encoding="utf-8"?>
<gpx xmlns:xsi="http://www.w3.org/2001/XMLSchema-instance" xmlns:xsd="http://www.w3.org/2001/XMLSchema" version="1.1" creator="Shapelink.com" xmlns="http://www.topografix.com/GPX/1/1" xmlns:gpxtpx="http://www.garmin.com/xmlschemas/TrackPointExtension/v1">
  <metadata>
    <name>Övrigt 3.47 km, 2020-06-16</name>
    <desc></desc>
    <author><name>Marian Moron</name></author> 
    <time>2020-06-16T19:40:37Z</time>
  </metadata>
  <trk>
    <name>Övrigt 3.47 km, 2020-06-16</name>
    <trkseg>
      <trkpt lat="51.228813339639" lon="4.44868671948">
        <ele>0</ele>
        <time>2020-06-16T19:40:37Z</time>
      </trkpt>
      <trkpt lat="51.22907058015" lon="4.448566187758">
        <ele>0</ele>
        <time>2020-06-16T19:41:07Z</time>
      </trkpt>
      <trkpt lat="51.229333101258" lon="4.44913096018">
        <ele>0</ele>
        <time>2020-06-16T19:41:55Z</time>
      </trkpt>
      <trkpt lat="51.229508785882" lon="4.449784580742">
        <ele>1.8</ele>
        <time>2020-06-16T19:42:38Z</time>
      </trkpt>
      <trkpt lat="51.229595370909" lon="4.450492599835">
        <ele>4</ele>
        <time>2020-06-16T19:43:25Z</time>
      </trkpt>
      <trkpt lat="51.22972353016" lon="4.450955951267">
        <ele>4</ele>
        <time>2020-06-16T19:44:02Z</time>
      </trkpt>
      <trkpt lat="51.229839116561" lon="4.450993921274">
        <ele>3.4</ele>
        <time>2020-06-16T19:44:19Z</time>
      </trkpt>
      <trkpt lat="51.229867195926" lon="4.45098838922">
        <ele>3</ele>
        <time>2020-06-16T19:44:22Z</time>
      </trkpt>
      <trkpt lat="51.230294756645" lon="4.450774566951">
        <ele>1.8</ele>
        <time>2020-06-16T19:45:11Z</time>
      </trkpt>
      <trkpt lat="51.230365499881" lon="4.450774483132">
        <ele>1.8</ele>
        <time>2020-06-16T19:45:18Z</time>
      </trkpt>
      <trkpt lat="51.230430627244" lon="4.450872467543">
        <ele>1.2</ele>
        <time>2020-06-16T19:45:23Z</time>
      </trkpt>
      <trkpt lat="51.230625171143" lon="4.451519550223">
        <ele>0</ele>
        <time>2020-06-16T19:46:07Z</time>
      </trkpt>
      <trkpt lat="51.230747379245" lon="4.452207704213">
        <ele>3</ele>
        <time>2020-06-16T19:46:54Z</time>
      </trkpt>
      <trkpt lat="51.230789624021" lon="4.452916561496">
        <ele>7.6</ele>
        <time>2020-06-16T19:47:44Z</time>
      </trkpt>
      <trkpt lat="51.230889033355" lon="4.453616198689">
        <ele>14.8</ele>
        <time>2020-06-16T19:48:25Z</time>
      </trkpt>
      <trkpt lat="51.231074021888" lon="4.45426990307">
        <ele>4</ele>
        <time>2020-06-16T19:49:14Z</time>
      </trkpt>
      <trkpt lat="51.231082906702" lon="4.45436126578">
        <ele>3.6</ele>
        <time>2020-06-16T19:49:20Z</time>
      </trkpt>
      <trkpt lat="51.231232607436" lon="4.455031314866">
        <ele>0</ele>
        <time>2020-06-16T19:50:10Z</time>
      </trkpt>
      <trkpt lat="51.231312906038" lon="4.455734556276">
        <ele>0</ele>
        <time>2020-06-16T19:51:00Z</time>
      </trkpt>
      <trkpt lat="51.231162870028" lon="4.455850561772">
        <ele>0.6</ele>
        <time>2020-06-16T19:51:24Z</time>
      </trkpt>
      <trkpt lat="51.231063041599" lon="4.455941086292">
        <ele>5.4</ele>
        <time>2020-06-16T19:51:41Z</time>
      </trkpt>
      <trkpt lat="51.230960866238" lon="4.456174606026">
        <ele>12.8</ele>
        <time>2020-06-16T19:51:58Z</time>
      </trkpt>
      <trkpt lat="51.230518385737" lon="4.456342830759">
        <ele>8.6</ele>
        <time>2020-06-16T19:52:42Z</time>
      </trkpt>
      <trkpt lat="51.230075486141" lon="4.456465290318">
        <ele>6.8</ele>
        <time>2020-06-16T19:53:28Z</time>
      </trkpt>
      <trkpt lat="51.229784215116" lon="4.456830070606">
        <ele>5.4</ele>
        <time>2020-06-16T19:54:21Z</time>
      </trkpt>
      <trkpt lat="51.229765858755" lon="4.456972730544">
        <ele>4.6</ele>
        <time>2020-06-16T19:54:31Z</time>
      </trkpt>
      <trkpt lat="51.229812797395" lon="4.457689131537">
        <ele>0</ele>
        <time>2020-06-16T19:55:22Z</time>
      </trkpt>
      <trkpt lat="51.229827381901" lon="4.457800526988">
        <ele>1</ele>
        <time>2020-06-16T19:55:30Z</time>
      </trkpt>
      <trkpt lat="51.229768540963" lon="4.457882418151">
        <ele>1.4</ele>
        <time>2020-06-16T19:55:38Z</time>
      </trkpt>
      <trkpt lat="51.229672987303" lon="4.458012756696">
        <ele>1.6</ele>
        <time>2020-06-16T19:55:58Z</time>
      </trkpt>
      <trkpt lat="51.229610961243" lon="4.457853500596">
        <ele>0</ele>
        <time>2020-06-16T20:03:33Z</time>
      </trkpt>
      <trkpt lat="51.229193961718" lon="4.458035304007">
        <ele>0</ele>
        <time>2020-06-16T20:04:13Z</time>
      </trkpt>
      <trkpt lat="51.229109555985" lon="4.45806522739">
        <ele>0</ele>
        <time>2020-06-16T20:04:24Z</time>
      </trkpt>
      <trkpt lat="51.228662716896" lon="4.458182490171">
        <ele>0</ele>
        <time>2020-06-16T20:05:03Z</time>
      </trkpt>
      <trkpt lat="51.228582502113" lon="4.458316181476">
        <ele>0</ele>
        <time>2020-06-16T20:05:12Z</time>
      </trkpt>
      <trkpt lat="51.228567917607" lon="4.458495135041">
        <ele>0</ele>
        <time>2020-06-16T20:05:25Z</time>
      </trkpt>
      <trkpt lat="51.228546962857" lon="4.458551545228">
        <ele>0</ele>
        <time>2020-06-16T20:05:29Z</time>
      </trkpt>
      <trkpt lat="51.228568671978" lon="4.458717842124">
        <ele>0.8</ele>
        <time>2020-06-16T20:05:43Z</time>
      </trkpt>
      <trkpt lat="51.228652071883" lon="4.458930574746">
        <ele>7.2</ele>
        <time>2020-06-16T20:06:14Z</time>
      </trkpt>
      <trkpt lat="51.228439590718" lon="4.459483696327">
        <ele>0</ele>
        <time>2020-06-16T20:07:05Z</time>
      </trkpt>
      <trkpt lat="51.228384437816" lon="4.459633061785">
        <ele>0.6</ele>
        <time>2020-06-16T20:07:15Z</time>
      </trkpt>
      <trkpt lat="51.228368931301" lon="4.459786450555">
        <ele>3.8</ele>
        <time>2020-06-16T20:07:29Z</time>
      </trkpt>
      <trkpt lat="51.228339846108" lon="4.460074117363">
        <ele>2.6</ele>
        <time>2020-06-16T20:07:44Z</time>
      </trkpt>
      <trkpt lat="51.228329368733" lon="4.460155002698">
        <ele>0</ele>
        <time>2020-06-16T20:07:48Z</time>
      </trkpt>
      <trkpt lat="51.228238006023" lon="4.460463121342">
        <ele>0</ele>
        <time>2020-06-16T20:08:42Z</time>
      </trkpt>
      <trkpt lat="51.228308749259" lon="4.460521459366">
        <ele>0.6</ele>
        <time>2020-06-16T20:08:52Z</time>
      </trkpt>
      <trkpt lat="51.228338672642" lon="4.460608631126">
        <ele>0.6</ele>
        <time>2020-06-16T20:09:04Z</time>
      </trkpt>
      <trkpt lat="51.228632290599" lon="4.4611656922">
        <ele>15</ele>
        <time>2020-06-16T20:09:45Z</time>
      </trkpt>
      <trkpt lat="51.228679061601" lon="4.46113384098">
        <ele>13.6</ele>
        <time>2020-06-16T20:09:50Z</time>
      </trkpt>
      <trkpt lat="51.229035292351" lon="4.46142134015">
        <ele>27.6</ele>
        <time>2020-06-16T20:10:36Z</time>
      </trkpt>
      <trkpt lat="51.22909488766" lon="4.461375826433">
        <ele>21.4</ele>
        <time>2020-06-16T20:10:51Z</time>
      </trkpt>
      <trkpt lat="51.229339387683" lon="4.4610651094">
        <ele>1</ele>
        <time>2020-06-16T20:11:21Z</time>
      </trkpt>
      <trkpt lat="51.229726128549" lon="4.461197208144">
        <ele>0</ele>
        <time>2020-06-16T20:11:55Z</time>
      </trkpt>
      <trkpt lat="51.229929473443" lon="4.461690063864">
        <ele>1.8</ele>
        <time>2020-06-16T20:12:29Z</time>
      </trkpt>
      <trkpt lat="51.22998504544" lon="4.461859797339">
        <ele>5.8</ele>
        <time>2020-06-16T20:12:49Z</time>
      </trkpt>
      <trkpt lat="51.230032067899" lon="4.462117708402">
        <ele>4.8</ele>
        <time>2020-06-16T20:13:11Z</time>
      </trkpt>
      <trkpt lat="51.230240777209" lon="4.462755990087">
        <ele>0.4</ele>
        <time>2020-06-16T20:13:51Z</time>
      </trkpt>
      <trkpt lat="51.230308838237" lon="4.463004261965">
        <ele>11</ele>
        <time>2020-06-16T20:14:17Z</time>
      </trkpt>
      <trkpt lat="51.230427693579" lon="4.463381782741">
        <ele>10.2</ele>
        <time>2020-06-16T20:14:47Z</time>
      </trkpt>
      <trkpt lat="51.230439595877" lon="4.463411370848">
        <ele>10</ele>
        <time>2020-06-16T20:14:49Z</time>
      </trkpt>
      <trkpt lat="51.23043347709" lon="4.463475995297">
        <ele>10.6</ele>
        <time>2020-06-16T20:14:53Z</time>
      </trkpt>
      <trkpt lat="51.230563061264" lon="4.464070774921">
        <ele>0.2</ele>
        <time>2020-06-16T20:15:28Z</time>
      </trkpt>
      <trkpt lat="51.230727597961" lon="4.464528259023">
        <ele>0</ele>
        <time>2020-06-16T20:16:14Z</time>
      </trkpt>
      <trkpt lat="51.230784427243" lon="4.465241726351">
        <ele>0</ele>
        <time>2020-06-16T20:16:52Z</time>
      </trkpt>
      <trkpt lat="51.230806052545" lon="4.465964581407">
        <ele>0</ele>
        <time>2020-06-16T20:17:24Z</time>
      </trkpt>
      <trkpt lat="51.230806220183" lon="4.466011771504">
        <ele>0</ele>
        <time>2020-06-16T20:17:28Z</time>
      </trkpt>
      <trkpt lat="51.230766154701" lon="4.466401697492">
        <ele>5.8</ele>
        <time>2020-06-16T20:17:56Z</time>
      </trkpt>
      <trkpt lat="51.230738662069" lon="4.467129665507">
        <ele>2</ele>
        <time>2020-06-16T20:18:31Z</time>
      </trkpt>
      <trkpt lat="51.230739835535" lon="4.467153051008">
        <ele>1.8</ele>
        <time>2020-06-16T20:18:32Z</time>
      </trkpt>
      <trkpt lat="51.230738829707" lon="4.467262183346">
        <ele>0</ele>
        <time>2020-06-16T20:18:39Z</time>
      </trkpt>
      <trkpt lat="51.230662554417" lon="4.467189260816">
        <ele>0</ele>
        <time>2020-06-16T20:19:00Z</time>
      </trkpt>
      <trkpt lat="51.230619890546" lon="4.466925817699">
        <ele>0</ele>
        <time>2020-06-16T20:19:26Z</time>
      </trkpt>
      <trkpt lat="51.23062374622" lon="4.466533880055">
        <ele>0</ele>
        <time>2020-06-16T20:19:52Z</time>
      </trkpt>
      <trkpt lat="51.230694489456" lon="4.465953768756">
        <ele>2.2</ele>
        <time>2020-06-16T20:20:33Z</time>
      </trkpt>
      <trkpt lat="51.230710666523" lon="4.465553700669">
        <ele>0</ele>
        <time>2020-06-16T20:21:10Z</time>
      </trkpt>
      <trkpt lat="51.230704966831" lon="4.464956993208">
        <ele>0.4</ele>
        <time>2020-06-16T20:22:21Z</time>
      </trkpt>
      <trkpt lat="51.230627434256" lon="4.464669661676">
        <ele>0</ele>
        <time>2020-06-16T20:22:44Z</time>
      </trkpt>
      <trkpt lat="51.230452168727" lon="4.464144032727">
        <ele>0.8</ele>
        <time>2020-06-16T20:23:46Z</time>
      </trkpt>
      <trkpt lat="51.230333983937" lon="4.463892408089">
        <ele>0.2</ele>
        <time>2020-06-16T20:24:09Z</time>
      </trkpt>
      <trkpt lat="51.229985380716" lon="4.464237239455">
        <ele>1</ele>
        <time>2020-06-16T20:25:09Z</time>
      </trkpt>
      <trkpt lat="51.229874152903" lon="4.464253165065">
        <ele>1.6</ele>
        <time>2020-06-16T20:25:20Z</time>
      </trkpt>
      <trkpt lat="51.229654044209" lon="4.464324075939">
        <ele>6</ele>
        <time>2020-06-16T20:25:46Z</time>
      </trkpt>
      <trkpt lat="51.22920804331" lon="4.464394064804">
        <ele>10.2</ele>
        <time>2020-06-16T20:26:30Z</time>
      </trkpt>
      <trkpt lat="51.228818452598" lon="4.464455252674">
        <ele>4.8</ele>
        <time>2020-06-16T20:28:24Z</time>
      </trkpt>
      <trkpt lat="51.228754163425" lon="4.464667314744">
        <ele>0.8</ele>
        <time>2020-06-16T20:29:02Z</time>
      </trkpt>
      <trkpt lat="51.22875122976" lon="4.464746942794">
        <ele>1.8</ele>
        <time>2020-06-16T20:29:07Z</time>
      </trkpt>
      <trkpt lat="51.22873865691" lon="4.465291850113">
        <ele>1.2</ele>
        <time>2020-06-16T20:31:07Z</time>
      </trkpt>
      <trkpt lat="51.228738573091" lon="4.465350271956">
        <ele>1.4</ele>
        <time>2020-06-16T20:31:11Z</time>
      </trkpt>
      <trkpt lat="51.228619466292" lon="4.465727876551">
        <ele>0</ele>
        <time>2020-06-16T20:31:52Z</time>
      </trkpt>
      <trkpt lat="51.228595913153" lon="4.46575729702">
        <ele>0</ele>
        <time>2020-06-16T20:31:55Z</time>
      </trkpt>
      <trkpt lat="51.22841092462" lon="4.465972208936">
        <ele>4</ele>
        <time>2020-06-16T20:33:10Z</time>
      </trkpt>
      <trkpt lat="51.22804212102" lon="4.466378898724">
        <ele>9.8</ele>
        <time>2020-06-16T20:33:53Z</time>
      </trkpt>
      <trkpt lat="51.228009347791" lon="4.466380742742">
        <ele>7.8</ele>
        <time>2020-06-16T20:33:57Z</time>
      </trkpt>
      <trkpt lat="51.227862915998" lon="4.466218385339">
        <ele>6</ele>
        <time>2020-06-16T20:34:25Z</time>
      </trkpt>
      <trkpt lat="51.227878171056" lon="4.466069019881">
        <ele>5.8</ele>
        <time>2020-06-16T20:34:35Z</time>
      </trkpt>
      <trkpt lat="51.227868867147" lon="4.465382374633">
        <ele>5</ele>
        <time>2020-06-16T20:35:26Z</time>
      </trkpt>
      <trkpt lat="51.227868364233" lon="4.465367454851">
        <ele>4.8</ele>
        <time>2020-06-16T20:35:27Z</time>
      </trkpt>
      <trkpt lat="51.22784766094" lon="4.464661447414">
        <ele>6.2</ele>
        <time>2020-06-16T20:36:11Z</time>
      </trkpt>
      <trkpt lat="51.227850343148" lon="4.464552315076">
        <ele>5.2</ele>
        <time>2020-06-16T20:36:22Z</time>
      </trkpt>
      <trkpt lat="51.227848918225" lon="4.464310832537">
        <ele>6</ele>
        <time>2020-06-16T20:36:42Z</time>
      </trkpt>
      <trkpt lat="51.227857048668" lon="4.464280070964">
        <ele>6.2</ele>
        <time>2020-06-16T20:36:44Z</time>
      </trkpt>
      <trkpt lat="51.227849002044" lon="4.463565346351">
        <ele>13.2</ele>
        <time>2020-06-16T20:37:31Z</time>
      </trkpt>
      <trkpt lat="51.227668791194" lon="4.462909797952">
        <ele>4.6</ele>
        <time>2020-06-16T20:38:30Z</time>
      </trkpt>
      <trkpt lat="51.227665019339" lon="4.462880712759">
        <ele>4.2</ele>
        <time>2020-06-16T20:38:32Z</time>
      </trkpt>
      <trkpt lat="51.227638281078" lon="4.462675859123">
        <ele>1</ele>
        <time>2020-06-16T20:38:48Z</time>
      </trkpt>
      <trkpt lat="51.227481958643" lon="4.462001032354">
        <ele>0</ele>
        <time>2020-06-16T20:39:30Z</time>
      </trkpt>
      <trkpt lat="51.2273900092" lon="4.461591660358">
        <ele>4</ele>
        <time>2020-06-16T20:40:06Z</time>
      </trkpt>
      <trkpt lat="51.227355056677" lon="4.461229981373">
        <ele>6</ele>
        <time>2020-06-16T20:40:34Z</time>
      </trkpt>
      <trkpt lat="51.22743694784" lon="4.461106851262">
        <ele>10.4</ele>
        <time>2020-06-16T20:40:53Z</time>
      </trkpt>
      <trkpt lat="51.227393697236" lon="4.460395898504">
        <ele>13</ele>
        <time>2020-06-16T20:42:10Z</time>
      </trkpt>
      <trkpt lat="51.227388249001" lon="4.460377877419">
        <ele>12.8</ele>
        <time>2020-06-16T20:42:11Z</time>
      </trkpt>
      <trkpt lat="51.227233602946" lon="4.459846632597">
        <ele>8.2</ele>
        <time>2020-06-16T20:42:53Z</time>
      </trkpt>
      <trkpt lat="51.22702623474" lon="4.459212960957">
        <ele>0.8</ele>
        <time>2020-06-16T20:43:41Z</time>
      </trkpt>
      <trkpt lat="51.227259503017" lon="4.458955971903">
        <ele>3.8</ele>
        <time>2020-06-16T20:44:44Z</time>
      </trkpt>
      <trkpt lat="51.227683291881" lon="4.45871482464">
        <ele>9.6</ele>
        <time>2020-06-16T20:45:33Z</time>
      </trkpt>
      <trkpt lat="51.228140943621" lon="4.458589179959">
        <ele>8.8</ele>
        <time>2020-06-16T20:46:19Z</time>
      </trkpt>
      <trkpt lat="51.228519386406" lon="4.45821777797">
        <ele>4.6</ele>
        <time>2020-06-16T20:46:58Z</time>
      </trkpt>
      <trkpt lat="51.228965219667" lon="4.458158182661">
        <ele>10.6</ele>
        <time>2020-06-16T20:47:52Z</time>
      </trkpt>
      <trkpt lat="51.229015427248" lon="4.458161367783">
        <ele>11.2</ele>
        <time>2020-06-16T20:47:58Z</time>
      </trkpt>
      <trkpt lat="51.229370903627" lon="4.458074698937">
        <ele>8.2</ele>
        <time>2020-06-16T20:48:35Z</time>
      </trkpt>
      <trkpt lat="51.229531249374" lon="4.457978474725">
        <ele>9.6</ele>
        <time>2020-06-16T20:49:00Z</time>
      </trkpt>
      <trkpt lat="51.22973023568" lon="4.457964728409">
        <ele>16.2</ele>
        <time>2020-06-16T20:49:35Z</time>
      </trkpt>
    </trkseg>
  </trk>
</gpx>